This is the latest recevied weather packets stored in our database for station/object W5HKR. If no packets are shown the sender has not sent any weather packets the latest 10 day(s).
| Time | Temp. | Humidity | Pressure | Rain* | Wind** | Luminosity | Snow |
|---|---|---|---|---|---|---|---|
| 1777917209 | 26.67° C | 60% | 985.5 hPa | 0 mm | - | - | - |
| 1777917119 | 18.33° C | 91% | 990.6 hPa | 0 mm | - | - | - |
| 1777916909 | 18.33° C | 91% | 990.6 hPa | 0 mm | - | - | - |
| 1777916609 | 26.67° C | 63% | 985.4 hPa | 0 mm | - | - | - |
| 1777916308 | 26.67° C | 61% | 985.8 hPa | 0 mm | - | - | - |
| 1777916039 | 18.33° C | 91% | 990.6 hPa | 0 mm | - | - | - |
| 1777916008 | 26.11° C | 62% | 985.7 hPa | 0 mm | - | - | - |
| 1777915710 | 18.33° C | 91% | 990.6 hPa | 0 mm | - | - | - |
| 1777915409 | 18.33° C | 91% | 990.6 hPa | 0 mm | - | - | - |
| 1777915108 | 26.11° C | 63% | 985.5 hPa | 0 mm | - | - | - |
| 1777914959 | 26.67° C | 62% | 986.1 hPa | 0 mm | - | - | - |
| 1777914809 | 18.33° C | 91% | 990.6 hPa | 0 mm | - | - | - |
| 1777914508 | 26.67° C | 65% | 986.1 hPa | 0 mm | - | - | - |
| 1777914210 | 18.33° C | 91% | 990.6 hPa | 0 mm | - | - | - |
| 1777913910 | 18.33° C | 91% | 990.6 hPa | 0 mm | - | - | - |
| 1777913878 | 18.33° C | 91% | 990.6 hPa | 0 mm | - | - | - |
| 1777913608 | 18.33° C | 91% | 990.6 hPa | 0 mm | - | - | - |
| 1777913309 | 25.56° C | 67% | 985.9 hPa | 0 mm | - | - | - |
| 1777913008 | 18.33° C | 91% | 990.6 hPa | 0 mm | - | - | - |
| 1777912798 | 25° C | 67% | 986.1 hPa | 0 mm | - | - | - |
| 1777912709 | 25° C | 69% | 986.1 hPa | 0 mm | - | - | - |
| 1777912408 | 23.89° C | 71% | 986.1 hPa | 0 mm | - | - | - |
| 1777912109 | 23.33° C | 71% | 985.9 hPa | 0 mm | - | - | - |
| 1777911808 | 23.89° C | 71% | 986.3 hPa | 0 mm | - | - | - |
| 1777911720 | 23.33° C | 72% | 986.3 hPa | 0 mm | - | - | - |
* Rain latest hour (hover to see other rain measurements)
** Current wind speed in m/s (hover to see current wind gust speed)